createdAt,value
2017-12-10T00:01:01.458Z,75.59
2017-12-10T00:03:30.797Z,75.33
2017-12-10T00:06:00.669Z,76.08
2017-12-10T00:08:30.994Z,76.82
2017-12-10T00:11:00.733Z,77.51
2017-12-10T00:13:30.334Z,78.72
2017-12-10T00:15:59.815Z,78.92
2017-12-10T00:18:29.403Z,80.03
2017-12-10T00:20:58.910Z,80.35
2017-12-10T00:23:28.551Z,80.41
2017-12-10T00:25:58.148Z,79.68
2017-12-10T00:28:27.815Z,78.95
2017-12-10T00:30:57.311Z,78.45
2017-12-10T00:33:26.803Z,79.06
2017-12-10T00:35:56.044Z,79.38
2017-12-10T00:38:25.568Z,80.27
2017-12-10T00:40:55.134Z,80.71
2017-12-10T00:43:24.687Z,81.73
2017-12-10T00:45:54.564Z,81.51
2017-12-10T00:48:24.417Z,79.83
2017-12-10T00:50:53.941Z,80.36
2017-12-10T00:53:23.480Z,81.44
2017-12-10T00:55:52.964Z,81.70
2017-12-10T00:58:22.537Z,80.86
2017-12-10T01:00:52.116Z,78.74
2017-12-10T01:03:21.686Z,79.68
2017-12-10T01:05:51.830Z,80.91
2017-12-10T01:08:21.719Z,80.43
2017-12-10T01:10:50.958Z,80.56
2017-12-10T01:13:20.580Z,80.18
2017-12-10T01:15:50.374Z,80.17
2017-12-10T01:18:19.866Z,79.78
2017-12-10T01:20:49.705Z,80.39
2017-12-10T01:23:23.448Z,79.87
2017-12-10T01:25:53.010Z,79.61
2017-12-10T01:28:22.843Z,79.98
2017-12-10T01:30:52.498Z,79.84
2017-12-10T01:33:22.241Z,79.88
2017-12-10T01:35:51.790Z,79.58
2017-12-10T01:38:21.361Z,80.55
2017-12-10T01:40:50.987Z,80.24
2017-12-10T01:43:20.350Z,80.47
2017-12-10T01:45:49.649Z,81.94
2017-12-10T01:48:19.223Z,82.43
2017-12-10T01:50:48.769Z,82.47
2017-12-10T01:53:18.085Z,83.39
2017-12-10T01:55:47.693Z,83.27
2017-12-10T01:58:16.985Z,83.87
2017-12-10T02:00:46.121Z,83.56
2017-12-10T02:03:15.382Z,83.80
2017-12-10T02:05:44.949Z,81.62
2017-12-10T02:08:14.525Z,80.83
2017-12-10T02:10:44.061Z,80.17
2017-12-10T02:13:14.648Z,80.24
2017-12-10T02:15:44.491Z,79.28
2017-12-10T02:18:13.536Z,78.73
2017-12-10T02:20:42.833Z,78.31
2017-12-10T02:23:12.088Z,79.25
2017-12-10T02:25:41.337Z,80.55
2017-12-10T02:28:10.486Z,82.29
2017-12-10T02:30:39.721Z,83.41
2017-12-10T02:33:08.776Z,84.16
2017-12-10T02:35:38.082Z,85.33
2017-12-10T02:38:07.338Z,86.56
2017-12-10T02:40:36.627Z,87.01
2017-12-10T02:43:05.903Z,87.27
2017-12-10T02:45:35.211Z,87.02
2017-12-10T02:48:04.514Z,87.30
2017-12-10T02:50:33.772Z,86.86
2017-12-10T02:53:02.844Z,86.35
2017-12-10T02:55:35.709Z,85.84
2017-12-10T02:58:04.752Z,84.58
2017-12-10T03:00:34.122Z,83.98
2017-12-10T03:03:04.207Z,83.86
2017-12-10T03:05:33.584Z,83.72
2017-12-10T03:08:02.920Z,83.44
2017-12-10T03:10:32.655Z,83.44
2017-12-10T03:13:02.017Z,84.04
2017-12-10T03:15:31.425Z,84.44
2017-12-10T03:18:00.793Z,84.38
2017-12-10T03:20:30.132Z,84.75
2017-12-10T03:22:59.464Z,84.74
2017-12-10T03:25:29.584Z,84.71
2017-12-10T03:27:58.900Z,84.56
2017-12-10T03:33:01.657Z,84.27
2017-12-10T03:35:31.068Z,84.18
2017-12-10T03:38:00.427Z,84.26
2017-12-10T03:40:30.061Z,84.50
2017-12-10T03:42:59.459Z,85.11
2017-12-10T03:45:29.091Z,85.15
2017-12-10T03:47:58.737Z,85.29
2017-12-10T03:50:28.322Z,85.74
2017-12-10T03:52:57.617Z,85.76
2017-12-10T03:55:27.207Z,85.95
2017-12-10T03:57:56.849Z,86.37
2017-12-10T04:00:26.764Z,86.82
2017-12-10T04:02:56.489Z,87.24
2017-12-10T04:05:26.383Z,87.29
2017-12-10T04:07:56.247Z,87.71
2017-12-10T04:10:26.113Z,88.04
2017-12-10T04:12:55.837Z,87.99
2017-12-10T04:15:25.696Z,88.12
2017-12-10T04:17:55.136Z,88.34
2017-12-10T04:20:24.758Z,88.40
2017-12-10T04:22:54.677Z,88.46
2017-12-10T04:25:24.318Z,88.68
2017-12-10T04:27:53.800Z,88.83
2017-12-10T04:30:23.125Z,89.05
2017-12-10T04:32:52.740Z,89.24
2017-12-10T04:35:22.309Z,89.27
2017-12-10T04:37:51.898Z,89.30
2017-12-10T04:40:21.455Z,89.28
2017-12-10T04:42:50.994Z,89.26
2017-12-10T04:45:20.904Z,89.27
2017-12-10T04:47:50.803Z,89.37
2017-12-10T04:50:20.638Z,89.45
2017-12-10T04:52:50.138Z,89.49
2017-12-10T04:55:19.637Z,89.70
2017-12-10T04:57:50.139Z,89.74
2017-12-10T05:00:19.639Z,89.68
2017-12-10T05:02:49.261Z,89.69
2017-12-10T05:05:18.897Z,89.61
2017-12-10T05:07:48.803Z,89.74
2017-12-10T05:10:18.157Z,90.24
2017-12-10T05:12:47.757Z,90.28
2017-12-10T05:15:17.588Z,89.71
2017-12-10T05:17:47.086Z,89.94
2017-12-10T05:20:16.648Z,90.07
2017-12-10T05:22:46.812Z,89.90
2017-12-10T05:25:16.409Z,90.02
2017-12-10T05:27:45.926Z,90.36
2017-12-10T05:30:15.836Z,90.43
2017-12-10T05:32:45.385Z,90.70
2017-12-10T05:35:15.197Z,90.93
2017-12-10T05:37:48.622Z,91.36
2017-12-10T05:40:18.166Z,91.46
2017-12-10T05:42:48.059Z,91.75
2017-12-10T05:45:17.881Z,91.94
2017-12-10T05:47:47.886Z,92.03
2017-12-10T05:50:17.770Z,91.79
2017-12-10T05:52:47.677Z,91.84
2017-12-10T05:55:17.474Z,92.07
2017-12-10T05:57:47.442Z,92.41
2017-12-10T06:00:17.057Z,92.65
2017-12-10T06:02:46.593Z,92.90
2017-12-10T06:05:16.103Z,92.84
2017-12-10T06:07:45.701Z,92.72
2017-12-10T06:10:15.593Z,92.82
2017-12-10T06:12:45.133Z,92.96
2017-12-10T06:15:14.698Z,93.06
2017-12-10T06:17:44.558Z,93.00
2017-12-10T06:20:14.040Z,93.00
2017-12-10T06:25:43.368Z,93.33
2017-12-10T06:28:13.025Z,93.50
2017-12-10T06:30:42.290Z,93.65
2017-12-10T06:33:11.828Z,93.73
2017-12-10T06:35:41.351Z,93.84
2017-12-10T06:38:11.318Z,93.78
2017-12-10T06:40:41.196Z,93.57
2017-12-10T06:43:10.689Z,93.33
2017-12-10T06:45:40.222Z,93.04
2017-12-10T06:48:10.042Z,92.86
2017-12-10T06:50:39.596Z,92.82
2017-12-10T06:53:09.156Z,92.80
2017-12-10T06:55:38.648Z,92.97
2017-12-10T06:58:08.199Z,93.05
2017-12-10T07:00:37.738Z,92.99
2017-12-10T07:03:07.049Z,93.00
2017-12-10T07:05:36.507Z,93.06
2017-12-10T07:08:06.124Z,93.48
2017-12-10T07:10:35.666Z,93.56
2017-12-10T07:13:05.460Z,93.35
2017-12-10T07:15:35.373Z,93.00
2017-12-10T07:18:04.925Z,92.49
2017-12-10T07:20:34.445Z,92.19
2017-12-10T07:23:04.135Z,91.96
2017-12-10T07:25:33.673Z,91.59
2017-12-10T07:28:03.296Z,91.48
2017-12-10T07:30:33.013Z,91.42
2017-12-10T07:33:06.373Z,91.43
2017-12-10T07:35:37.928Z,91.36
2017-12-10T07:38:08.118Z,91.05
2017-12-10T07:40:37.637Z,91.01
2017-12-10T07:43:07.180Z,91.90
2017-12-10T07:45:37.095Z,84.31
2017-12-10T07:48:06.931Z,74.59
2017-12-10T07:50:36.421Z,69.22
2017-12-10T07:53:05.930Z,64.39
2017-12-10T07:55:36.199Z,61.15
2017-12-10T07:58:05.718Z,57.56
2017-12-10T08:00:35.243Z,55.31
2017-12-10T08:03:06.190Z,54.27
2017-12-10T08:05:37.511Z,51.31
2017-12-10T08:08:06.786Z,49.63
2017-12-10T08:10:37.878Z,49.92
2017-12-10T08:13:07.277Z,47.77
2017-12-10T08:15:37.109Z,45.66
2017-12-10T08:18:06.689Z,45.73
2017-12-10T08:20:36.318Z,44.91
2017-12-10T08:23:05.773Z,42.65
2017-12-10T08:25:35.701Z,42.46
2017-12-10T08:28:05.222Z,40.15
2017-12-10T08:30:34.445Z,39.66
2017-12-10T08:33:04.005Z,38.61
2017-12-10T08:35:33.472Z,37.65
2017-12-10T08:38:02.943Z,36.74
2017-12-10T08:40:32.383Z,38.01
2017-12-10T08:43:02.201Z,36.76
2017-12-10T08:45:31.672Z,34.60
2017-12-10T08:48:01.458Z,39.19
2017-12-10T08:50:31.305Z,36.67
2017-12-10T08:53:00.510Z,37.57
2017-12-10T08:55:29.962Z,34.14
2017-12-10T08:57:59.439Z,33.87
2017-12-10T09:00:28.933Z,31.95
2017-12-10T09:02:58.479Z,30.78
2017-12-10T09:05:28.334Z,30.72
2017-12-10T09:07:57.794Z,31.80
2017-12-10T09:10:27.252Z,34.13
2017-12-10T09:12:56.721Z,33.12
2017-12-10T09:15:26.481Z,34.56
2017-12-10T09:17:56.415Z,33.70
2017-12-10T09:20:26.346Z,35.13
2017-12-10T09:22:57.177Z,37.63
2017-12-10T09:25:26.648Z,34.41
2017-12-10T09:27:56.435Z,34.42
2017-12-10T09:30:25.898Z,30.20
2017-12-10T09:32:55.441Z,29.38
2017-12-10T09:35:24.903Z,28.10
2017-12-10T09:37:59.603Z,27.17
2017-12-10T09:43:04.220Z,25.13
2017-12-10T09:45:33.641Z,26.72
2017-12-10T09:48:13.658Z,22.37
2017-12-10T09:50:48.759Z,26.99
2017-12-10T09:53:18.360Z,27.94
2017-12-10T09:55:52.520Z,28.57
2017-12-10T10:03:48.488Z,29.64
2017-12-10T10:06:19.327Z,29.33
2017-12-10T10:08:48.639Z,28.89
2017-12-10T10:11:17.946Z,28.93
2017-12-10T10:13:47.559Z,26.49
2017-12-10T10:16:20.708Z,29.59
2017-12-10T10:18:50.213Z,30.67
2017-12-10T10:21:19.493Z,28.82
2017-12-10T10:23:54.967Z,29.12
2017-12-10T10:26:24.339Z,29.84
2017-12-10T10:28:54.653Z,31.03
2017-12-10T10:31:23.941Z,29.88
2017-12-10T10:33:53.608Z,29.00
2017-12-10T10:36:22.836Z,28.04
2017-12-10T10:38:53.029Z,29.64
2017-12-10T10:41:24.412Z,27.57
2017-12-10T10:43:53.818Z,28.50
2017-12-10T10:46:23.083Z,27.41
2017-12-10T10:48:54.138Z,27.64
2017-12-10T10:51:23.755Z,24.60
2017-12-10T10:53:53.104Z,23.60
2017-12-10T10:56:22.954Z,20.90
2017-12-10T10:58:52.260Z,21.63
2017-12-10T11:01:21.607Z,21.63
2017-12-10T11:03:51.012Z,21.17
2017-12-10T11:06:20.303Z,19.19
2017-12-10T11:08:51.091Z,21.61
2017-12-10T11:11:22.452Z,22.95
2017-12-10T11:13:52.380Z,26.33
2017-12-10T11:16:22.993Z,27.60
2017-12-10T11:18:52.263Z,31.02
2017-12-10T11:21:21.558Z,31.92
2017-12-10T11:23:51.090Z,33.44
2017-12-10T11:26:20.578Z,34.40
2017-12-10T11:28:50.618Z,34.93
2017-12-10T11:31:20.524Z,36.51
2017-12-10T11:33:50.306Z,38.08
2017-12-10T11:36:20.754Z,39.49
2017-12-10T11:38:50.672Z,38.57
2017-12-10T11:41:20.548Z,39.02
2017-12-10T11:43:49.947Z,38.90
2017-12-10T11:46:19.502Z,40.39
2017-12-10T11:48:49.189Z,41.02
2017-12-10T11:51:19.132Z,40.79
2017-12-10T11:53:48.706Z,41.32
2017-12-10T11:56:18.614Z,41.62
2017-12-10T11:58:48.802Z,40.94
2017-12-10T12:01:18.744Z,41.99
2017-12-10T12:03:48.344Z,42.92
2017-12-10T12:06:17.869Z,42.74
2017-12-10T12:11:21.543Z,43.54
2017-12-10T12:13:51.167Z,43.63
2017-12-10T12:16:21.008Z,44.12
2017-12-10T12:18:50.521Z,44.85
2017-12-10T12:21:20.187Z,44.61
2017-12-10T12:23:50.164Z,44.22
2017-12-10T12:26:20.090Z,44.02
2017-12-10T12:28:53.543Z,43.83
2017-12-10T12:31:24.921Z,42.97
2017-12-10T12:33:55.039Z,42.53
2017-12-10T12:36:25.384Z,43.28
2017-12-10T12:38:56.071Z,42.43
2017-12-10T12:41:26.869Z,42.53
2017-12-10T12:43:56.874Z,42.36
2017-12-10T12:46:30.417Z,42.27
2017-12-10T12:51:39.725Z,43.16
2017-12-10T12:57:46.932Z,44.24
2017-12-10T13:00:16.643Z,44.34
2017-12-10T13:02:46.845Z,44.01
2017-12-10T13:05:17.032Z,43.66
2017-12-10T13:07:50.687Z,44.12
2017-12-10T13:10:21.227Z,43.99
2017-12-10T13:12:51.752Z,44.87
2017-12-10T13:15:22.388Z,43.90
2017-12-10T13:17:52.524Z,44.42
2017-12-10T13:20:24.667Z,44.86
2017-12-10T13:22:54.938Z,44.35
2017-12-10T13:25:25.402Z,44.37
2017-12-10T13:27:55.260Z,43.94
2017-12-10T13:30:25.092Z,44.07
2017-12-10T13:32:54.887Z,43.64
2017-12-10T13:35:24.560Z,42.43
2017-12-10T13:37:54.648Z,42.31
2017-12-10T13:40:24.169Z,42.25
2017-12-10T13:42:54.775Z,41.91
2017-12-10T13:45:24.387Z,42.23
2017-12-10T13:47:54.106Z,41.67
2017-12-10T13:50:27.640Z,41.72
2017-12-10T13:52:58.366Z,41.50
2017-12-10T13:55:28.252Z,42.54
2017-12-10T13:57:58.035Z,42.05
2017-12-10T14:00:27.671Z,41.54
2017-12-10T14:02:57.272Z,41.35
2017-12-10T14:05:26.821Z,41.69
2017-12-10T14:07:56.544Z,41.52
2017-12-10T14:10:26.139Z,42.22
2017-12-10T14:12:56.114Z,41.75
2017-12-10T14:15:25.776Z,40.07
2017-12-10T14:17:55.631Z,40.58
2017-12-10T14:20:25.571Z,40.76
2017-12-10T14:22:55.108Z,41.42
2017-12-10T14:25:25.003Z,41.50
2017-12-10T14:27:54.603Z,41.69
2017-12-10T14:30:24.849Z,41.82
2017-12-10T14:32:54.510Z,41.58
2017-12-10T14:35:24.297Z,41.12
2017-12-10T14:37:54.271Z,40.50
2017-12-10T14:40:25.206Z,41.55
2017-12-10T14:42:54.654Z,42.17
2017-12-10T14:48:01.405Z,42.81
2017-12-10T14:50:31.351Z,42.83
2017-12-10T14:53:01.285Z,43.04
2017-12-10T14:55:30.838Z,42.76
2017-12-10T14:58:00.366Z,43.37
2017-12-10T15:00:29.874Z,49.88
2017-12-10T15:02:59.502Z,55.20
2017-12-10T15:05:29.723Z,57.93
2017-12-10T15:07:59.385Z,59.25
2017-12-10T15:10:28.871Z,60.04
2017-12-10T15:12:58.470Z,61.07
2017-12-10T15:15:28.001Z,61.79
2017-12-10T15:17:57.551Z,63.34
2017-12-10T15:20:27.382Z,65.43
2017-12-10T15:22:57.217Z,67.00
2017-12-10T15:25:27.138Z,68.20
2017-12-10T15:27:56.988Z,69.72
2017-12-10T15:30:26.488Z,72.06
2017-12-10T15:32:56.391Z,74.31
2017-12-10T15:35:26.556Z,77.22
2017-12-10T15:37:55.943Z,78.46
2017-12-10T15:40:25.482Z,80.82
2017-12-10T15:42:54.961Z,81.79
2017-12-10T15:45:24.748Z,83.53
2017-12-10T15:47:54.897Z,85.23
2017-12-10T15:50:24.505Z,86.38
2017-12-10T15:52:54.087Z,87.44
2017-12-10T15:55:23.594Z,88.43
2017-12-10T15:57:53.071Z,88.81
2017-12-10T16:00:22.771Z,89.01
2017-12-10T16:02:52.267Z,89.82
2017-12-10T16:05:21.819Z,89.94
2017-12-10T16:07:51.641Z,90.12
2017-12-10T16:10:21.140Z,90.76
2017-12-10T16:12:50.401Z,91.19
2017-12-10T16:15:20.092Z,91.46
2017-12-10T16:17:50.040Z,91.53
2017-12-10T16:20:19.552Z,91.77
2017-12-10T16:22:49.098Z,92.04
2017-12-10T16:25:18.763Z,92.71
2017-12-10T16:27:48.850Z,92.43
2017-12-10T16:30:18.354Z,92.54
2017-12-10T16:32:47.865Z,92.65
2017-12-10T16:35:17.442Z,92.95
2017-12-10T16:37:47.272Z,92.86
2017-12-10T16:40:17.073Z,92.83
2017-12-10T16:42:46.536Z,92.52
2017-12-10T16:45:16.674Z,92.57
2017-12-10T16:47:46.180Z,92.62
2017-12-10T16:50:15.690Z,92.81
2017-12-10T16:52:45.517Z,92.36
2017-12-10T16:55:14.959Z,92.49
2017-12-10T16:57:44.950Z,92.66
2017-12-10T17:00:16.169Z,92.60
2017-12-10T17:02:46.808Z,92.80
2017-12-10T17:05:17.188Z,92.86
2017-12-10T17:07:47.182Z,93.26
2017-12-10T17:10:17.370Z,93.38
2017-12-10T17:12:47.039Z,93.41
2017-12-10T17:15:16.329Z,93.56
2017-12-10T17:17:46.962Z,93.67
2017-12-10T17:20:16.979Z,93.61
2017-12-10T17:22:46.559Z,93.59
2017-12-10T17:25:16.580Z,93.09
2017-12-10T17:27:46.153Z,92.70
2017-12-10T17:30:16.400Z,92.91
2017-12-10T17:32:45.895Z,93.17
2017-12-10T17:35:15.365Z,93.12
2017-12-10T17:37:45.272Z,92.96
2017-12-10T17:40:16.585Z,92.81
2017-12-10T17:42:46.084Z,92.85
2017-12-10T17:45:15.894Z,93.12
2017-12-10T17:47:45.419Z,93.27
2017-12-10T17:50:16.668Z,92.93
2017-12-10T17:52:46.764Z,92.18
2017-12-10T17:55:16.272Z,92.46
2017-12-10T17:57:46.280Z,92.67
2017-12-10T18:00:17.267Z,92.65
2017-12-10T18:02:49.111Z,92.62
2017-12-10T18:05:19.095Z,92.14
2017-12-10T18:07:48.563Z,91.39
2017-12-10T18:10:18.081Z,90.59
2017-12-10T18:12:48.793Z,88.79
2017-12-10T18:15:18.338Z,88.72
2017-12-10T18:17:47.950Z,89.09
2017-12-10T18:20:17.681Z,89.52
2017-12-10T18:22:47.493Z,89.97
2017-12-10T18:25:17.288Z,90.38
2017-12-10T18:27:47.136Z,90.36
2017-12-10T18:30:17.099Z,88.88
2017-12-10T18:32:47.085Z,89.26
2017-12-10T18:35:16.582Z,90.09
2017-12-10T18:37:46.060Z,90.36
2017-12-10T18:40:15.713Z,90.65
2017-12-10T18:42:45.413Z,90.62
2017-12-10T18:45:14.648Z,90.36
2017-12-10T18:47:44.455Z,90.71
2017-12-10T18:50:13.947Z,90.96
2017-12-10T18:52:43.884Z,90.83
2017-12-10T18:55:13.346Z,91.23
2017-12-10T18:57:43.195Z,91.44
2017-12-10T19:00:12.718Z,91.32
2017-12-10T19:02:46.387Z,90.06
2017-12-10T19:05:15.870Z,89.68
2017-12-10T19:07:45.679Z,89.79
2017-12-10T19:10:15.133Z,89.56
2017-12-10T19:12:44.608Z,90.03
2017-12-10T19:15:14.611Z,90.04
2017-12-10T19:17:44.108Z,90.54
2017-12-10T19:20:13.573Z,90.53
2017-12-10T19:22:42.838Z,91.22
2017-12-10T19:25:12.395Z,91.59
2017-12-10T19:27:42.216Z,91.60
2017-12-10T19:30:12.036Z,91.23
2017-12-10T19:32:42.013Z,90.70
2017-12-10T19:35:11.550Z,90.81
2017-12-10T19:37:41.184Z,90.73
2017-12-10T19:40:11.249Z,91.16
2017-12-10T19:42:41.183Z,91.65
2017-12-10T19:45:11.089Z,91.88
2017-12-10T19:47:41.133Z,92.33
2017-12-10T19:50:10.619Z,92.48
2017-12-10T19:52:44.201Z,92.56
2017-12-10T19:55:14.056Z,92.32
2017-12-10T19:57:43.522Z,92.15
2017-12-10T20:00:13.320Z,92.19
2017-12-10T20:02:42.974Z,92.18
2017-12-10T20:05:12.647Z,91.85
2017-12-10T20:07:42.163Z,91.41
2017-12-10T20:10:12.048Z,90.82
2017-12-10T20:12:41.506Z,90.04
2017-12-10T20:15:10.984Z,89.44
2017-12-10T20:17:40.510Z,89.89
2017-12-10T20:20:09.976Z,90.14
2017-12-10T20:22:41.797Z,90.58
2017-12-10T20:25:12.684Z,89.89
2017-12-10T20:27:42.999Z,90.12
2017-12-10T20:30:12.864Z,90.67
2017-12-10T20:32:42.668Z,90.40
2017-12-10T20:35:12.425Z,90.15
2017-12-10T20:37:42.265Z,89.80
2017-12-10T20:40:12.618Z,90.42
2017-12-10T20:42:43.287Z,90.97
2017-12-10T20:45:13.803Z,90.50
2017-12-10T20:47:44.034Z,90.53
2017-12-10T20:50:14.659Z,89.80
2017-12-10T20:52:45.093Z,90.79
2017-12-10T20:55:14.681Z,91.22
2017-12-10T20:57:44.487Z,90.09
2017-12-10T21:00:14.304Z,90.38
2017-12-10T21:02:44.189Z,90.73
2017-12-10T21:05:14.561Z,91.01
2017-12-10T21:07:45.389Z,91.63
2017-12-10T21:10:15.925Z,91.91
2017-12-10T21:12:46.384Z,92.40
2017-12-10T21:15:16.620Z,92.72
2017-12-10T21:17:46.863Z,92.75
2017-12-10T21:20:22.768Z,92.96
2017-12-10T21:22:52.694Z,92.20
2017-12-10T21:25:23.160Z,92.28
2017-12-10T21:27:56.815Z,92.43
2017-12-10T21:30:26.548Z,92.27
2017-12-10T21:32:56.117Z,92.28
2017-12-10T21:35:26.684Z,91.68
2017-12-10T21:37:56.474Z,91.12
2017-12-10T21:40:26.391Z,90.53
2017-12-10T21:42:56.454Z,91.04
2017-12-10T21:45:26.365Z,92.00
2017-12-10T21:47:55.966Z,92.23
2017-12-10T21:50:26.057Z,92.52
2017-12-10T21:52:57.612Z,92.72
2017-12-10T21:55:27.643Z,93.25
2017-12-10T21:57:57.629Z,93.61
2017-12-10T22:00:27.345Z,93.82
2017-12-10T22:02:58.287Z,93.46
2017-12-10T22:05:32.390Z,92.87
2017-12-10T22:08:01.990Z,92.56
2017-12-10T22:13:07.785Z,92.96
2017-12-10T22:15:37.854Z,93.18
2017-12-10T22:18:07.700Z,93.30
2017-12-10T22:20:37.926Z,93.47
2017-12-10T22:23:07.521Z,93.77
2017-12-10T22:25:37.277Z,93.80
2017-12-10T22:28:06.930Z,93.75
2017-12-10T22:30:36.597Z,94.09
2017-12-10T22:33:06.543Z,94.65
2017-12-10T22:35:36.174Z,95.23
2017-12-10T22:38:05.747Z,95.62
2017-12-10T22:40:35.369Z,96.01
2017-12-10T22:43:04.996Z,96.40
2017-12-10T22:45:34.887Z,96.65
2017-12-10T22:48:04.459Z,96.62
2017-12-10T22:50:34.300Z,96.64
2017-12-10T22:53:04.207Z,96.14
2017-12-10T22:55:33.847Z,96.32
2017-12-10T22:58:03.734Z,96.44
2017-12-10T23:00:34.220Z,96.20
2017-12-10T23:03:03.889Z,95.85
2017-12-10T23:05:33.810Z,95.90
2017-12-10T23:08:03.706Z,95.77
2017-12-10T23:10:33.637Z,95.35
2017-12-10T23:13:03.609Z,94.77
2017-12-10T23:15:37.982Z,94.77
2017-12-10T23:18:07.639Z,95.28
2017-12-10T23:20:37.578Z,95.42
2017-12-10T23:23:07.463Z,95.14
2017-12-10T23:25:37.396Z,95.28
2017-12-10T23:28:07.383Z,95.63
2017-12-10T23:30:37.315Z,95.76
2017-12-10T23:33:06.572Z,95.92
2017-12-10T23:35:36.484Z,95.89
2017-12-10T23:38:06.038Z,95.69
2017-12-10T23:40:35.569Z,96.10
2017-12-10T23:43:05.531Z,96.45
2017-12-10T23:45:35.422Z,96.70
2017-12-10T23:48:05.009Z,97.04
2017-12-10T23:50:34.903Z,97.31
2017-12-10T23:53:04.816Z,97.91
2017-12-10T23:55:34.742Z,98.17
2017-12-10T23:58:04.610Z,98.34
